sensor_id;sensor_type;location;lat;lon;timestamp;P1;durP1;ratioP1;P2;durP2;ratioP2
18574;SDS011;9417;16.484;102.872;2022-11-11T00:00:36;41.10;;;29.55;;
18574;SDS011;9417;16.484;102.872;2022-11-11T00:02:56;36.35;;;25.88;;
18574;SDS011;9417;16.484;102.872;2022-11-11T00:05:16;39.40;;;27.08;;
18574;SDS011;9417;16.484;102.872;2022-11-11T00:07:36;37.47;;;26.23;;
18574;SDS011;9417;16.484;102.872;2022-11-11T00:09:55;40.60;;;26.85;;
18574;SDS011;9417;16.484;102.872;2022-11-11T00:12:14;44.65;;;31.85;;
18574;SDS011;9417;16.484;102.872;2022-11-11T00:14:40;40.17;;;28.00;;
18574;SDS011;9417;16.484;102.872;2022-11-11T00:17:00;38.92;;;27.25;;
18574;SDS011;9417;16.484;102.872;2022-11-11T00:19:36;38.97;;;26.55;;
18574;SDS011;9417;16.484;102.872;2022-11-11T00:22:18;39.40;;;27.17;;
18574;SDS011;9417;16.484;102.872;2022-11-11T00:27:25;41.58;;;28.15;;
18574;SDS011;9417;16.484;102.872;2022-11-11T00:29:45;42.00;;;27.40;;
18574;SDS011;9417;16.484;102.872;2022-11-11T00:32:06;42.83;;;25.70;;
18574;SDS011;9417;16.484;102.872;2022-11-11T00:34:42;33.63;;;24.52;;
18574;SDS011;9417;16.484;102.872;2022-11-11T00:37:21;34.22;;;25.02;;
18574;SDS011;9417;16.484;102.872;2022-11-11T00:39:39;35.75;;;25.15;;
18574;SDS011;9417;16.484;102.872;2022-11-11T00:42:00;36.67;;;25.38;;
18574;SDS011;9417;16.484;102.872;2022-11-11T00:44:19;40.33;;;25.80;;
18574;SDS011;9417;16.484;102.872;2022-11-11T00:46:39;41.03;;;26.80;;
18574;SDS011;9417;16.484;102.872;2022-11-11T00:49:17;36.22;;;26.55;;
18574;SDS011;9417;16.484;102.872;2022-11-11T00:51:53;35.25;;;26.52;;
18574;SDS011;9417;16.484;102.872;2022-11-11T00:54:12;37.08;;;25.75;;
18574;SDS011;9417;16.484;102.872;2022-11-11T00:56:31;36.75;;;25.55;;
18574;SDS011;9417;16.484;102.872;2022-11-11T00:58:53;39.28;;;26.40;;
18574;SDS011;9417;16.484;102.872;2022-11-11T01:01:12;36.92;;;27.02;;
18574;SDS011;9417;16.484;102.872;2022-11-11T01:03:32;37.15;;;26.13;;
18574;SDS011;9417;16.484;102.872;2022-11-11T01:05:54;36.15;;;26.13;;
18574;SDS011;9417;16.484;102.872;2022-11-11T01:08:17;38.30;;;25.42;;
18574;SDS011;9417;16.484;102.872;2022-11-11T01:10:38;35.42;;;26.05;;
18574;SDS011;9417;16.484;102.872;2022-11-11T01:12:58;36.70;;;24.83;;
18574;SDS011;9417;16.484;102.872;2022-11-11T01:15:28;35.90;;;22.50;;
18574;SDS011;9417;16.484;102.872;2022-11-11T01:20:09;35.72;;;23.38;;
18574;SDS011;9417;16.484;102.872;2022-11-11T01:22:30;34.80;;;23.27;;
18574;SDS011;9417;16.484;102.872;2022-11-11T01:24:49;34.13;;;22.10;;
18574;SDS011;9417;16.484;102.872;2022-11-11T01:27:08;31.55;;;21.02;;
18574;SDS011;9417;16.484;102.872;2022-11-11T01:29:27;26.65;;;20.27;;
18574;SDS011;9417;16.484;102.872;2022-11-11T01:31:47;28.40;;;20.42;;
18574;SDS011;9417;16.484;102.872;2022-11-11T01:34:06;29.50;;;20.58;;
18574;SDS011;9417;16.484;102.872;2022-11-11T01:36:26;27.00;;;18.77;;
18574;SDS011;9417;16.484;102.872;2022-11-11T01:38:49;26.27;;;18.77;;
18574;SDS011;9417;16.484;102.872;2022-11-11T01:41:11;27.33;;;19.23;;
18574;SDS011;9417;16.484;102.872;2022-11-11T01:43:51;29.27;;;18.50;;
18574;SDS011;9417;16.484;102.872;2022-11-11T01:46:14;25.20;;;17.70;;
18574;SDS011;9417;16.484;102.872;2022-11-11T01:48:40;26.92;;;18.55;;
18574;SDS011;9417;16.484;102.872;2022-11-11T01:51:22;25.95;;;19.30;;
18574;SDS011;9417;16.484;102.872;2022-11-11T01:53:53;24.27;;;18.73;;
18574;SDS011;9417;16.484;102.872;2022-11-11T01:56:16;26.42;;;17.77;;
18574;SDS011;9417;16.484;102.872;2022-11-11T01:58:35;24.85;;;17.58;;
18574;SDS011;9417;16.484;102.872;2022-11-11T02:00:55;25.40;;;16.13;;
18574;SDS011;9417;16.484;102.872;2022-11-11T02:03:15;25.00;;;17.48;;
18574;SDS011;9417;16.484;102.872;2022-11-11T02:05:38;24.58;;;17.17;;
18574;SDS011;9417;16.484;102.872;2022-11-11T02:08:00;25.58;;;17.15;;
18574;SDS011;9417;16.484;102.872;2022-11-11T02:12:43;22.50;;;16.90;;
18574;SDS011;9417;16.484;102.872;2022-11-11T02:15:19;23.88;;;16.40;;
18574;SDS011;9417;16.484;102.872;2022-11-11T02:17:38;22.20;;;16.08;;
18574;SDS011;9417;16.484;102.872;2022-11-11T02:19:59;27.05;;;16.75;;
18574;SDS011;9417;16.484;102.872;2022-11-11T02:22:21;23.33;;;15.23;;
18574;SDS011;9417;16.484;102.872;2022-11-11T02:24:47;17.25;;;12.98;;
18574;SDS011;9417;16.484;102.872;2022-11-11T02:27:08;20.15;;;14.35;;
18574;SDS011;9417;16.484;102.872;2022-11-11T02:29:29;21.23;;;14.00;;
18574;SDS011;9417;16.484;102.872;2022-11-11T02:31:50;23.65;;;15.30;;
18574;SDS011;9417;16.484;102.872;2022-11-11T02:34:09;20.83;;;13.10;;
18574;SDS011;9417;16.484;102.872;2022-11-11T02:36:29;16.52;;;12.38;;
18574;SDS011;9417;16.484;102.872;2022-11-11T02:38:48;20.40;;;12.77;;
18574;SDS011;9417;16.484;102.872;2022-11-11T02:41:10;21.42;;;13.88;;
18574;SDS011;9417;16.484;102.872;2022-11-11T02:43:46;22.02;;;14.00;;
18574;SDS011;9417;16.484;102.872;2022-11-11T02:46:07;19.75;;;13.23;;
18574;SDS011;9417;16.484;102.872;2022-11-11T02:48:27;18.73;;;12.15;;
18574;SDS011;9417;16.484;102.872;2022-11-11T02:50:47;17.33;;;12.35;;
18574;SDS011;9417;16.484;102.872;2022-11-11T02:53:07;17.80;;;12.48;;
18574;SDS011;9417;16.484;102.872;2022-11-11T02:55:26;19.58;;;13.07;;
18574;SDS011;9417;16.484;102.872;2022-11-11T02:57:47;15.02;;;10.10;;
18574;SDS011;9417;16.484;102.872;2022-11-11T03:00:07;14.38;;;9.27;;
18574;SDS011;9417;16.484;102.872;2022-11-11T03:02:27;16.15;;;9.23;;
18574;SDS011;9417;16.484;102.872;2022-11-11T03:04:47;13.15;;;8.95;;
18574;SDS011;9417;16.484;102.872;2022-11-11T03:07:06;12.27;;;8.55;;
18574;SDS011;9417;16.484;102.872;2022-11-11T03:09:26;9.27;;;6.18;;
18574;SDS011;9417;16.484;102.872;2022-11-11T03:11:45;14.32;;;8.30;;
18574;SDS011;9417;16.484;102.872;2022-11-11T03:14:06;9.68;;;6.43;;
18574;SDS011;9417;16.484;102.872;2022-11-11T03:16:26;8.93;;;5.90;;
18574;SDS011;9417;16.484;102.872;2022-11-11T03:18:59;8.55;;;6.55;;
18574;SDS011;9417;16.484;102.872;2022-11-11T03:21:18;10.60;;;7.50;;
18574;SDS011;9417;16.484;102.872;2022-11-11T03:23:57;10.38;;;6.90;;
18574;SDS011;9417;16.484;102.872;2022-11-11T03:26:16;9.75;;;6.28;;
18574;SDS011;9417;16.484;102.872;2022-11-11T03:28:34;9.35;;;7.22;;
18574;SDS011;9417;16.484;102.872;2022-11-11T03:30:55;10.98;;;7.55;;
18574;SDS011;9417;16.484;102.872;2022-11-11T03:33:18;10.63;;;6.53;;
18574;SDS011;9417;16.484;102.872;2022-11-11T03:35:38;9.18;;;6.43;;
18574;SDS011;9417;16.484;102.872;2022-11-11T03:37:58;10.18;;;6.60;;
18574;SDS011;9417;16.484;102.872;2022-11-11T03:40:31;10.55;;;6.57;;
18574;SDS011;9417;16.484;102.872;2022-11-11T03:42:50;8.30;;;5.90;;
18574;SDS011;9417;16.484;102.872;2022-11-11T03:45:18;11.68;;;6.00;;
18574;SDS011;9417;16.484;102.872;2022-11-11T03:47:39;7.97;;;5.25;;
18574;SDS011;9417;16.484;102.872;2022-11-11T03:49:58;7.67;;;4.50;;
18574;SDS011;9417;16.484;102.872;2022-11-11T03:52:17;7.65;;;4.50;;
18574;SDS011;9417;16.484;102.872;2022-11-11T03:54:36;7.97;;;4.88;;
18574;SDS011;9417;16.484;102.872;2022-11-11T03:56:55;7.25;;;5.13;;
18574;SDS011;9417;16.484;102.872;2022-11-11T03:59:28;6.75;;;4.25;;
18574;SDS011;9417;16.484;102.872;2022-11-11T04:01:47;5.93;;;4.13;;
18574;SDS011;9417;16.484;102.872;2022-11-11T04:04:25;6.13;;;3.63;;
18574;SDS011;9417;16.484;102.872;2022-11-11T04:07:14;6.10;;;3.85;;
18574;SDS011;9417;16.484;102.872;2022-11-11T04:09:50;5.93;;;4.28;;
18574;SDS011;9417;16.484;102.872;2022-11-11T04:12:26;5.95;;;4.18;;
18574;SDS011;9417;16.484;102.872;2022-11-11T04:14:46;5.40;;;3.83;;
18574;SDS011;9417;16.484;102.872;2022-11-11T04:17:22;5.07;;;3.97;;
18574;SDS011;9417;16.484;102.872;2022-11-11T04:19:43;7.97;;;4.32;;
18574;SDS011;9417;16.484;102.872;2022-11-11T04:22:19;4.75;;;3.53;;
18574;SDS011;9417;16.484;102.872;2022-11-11T04:24:38;3.90;;;3.22;;
18574;SDS011;9417;16.484;102.872;2022-11-11T04:27:14;4.72;;;2.75;;
18574;SDS011;9417;16.484;102.872;2022-11-11T04:29:34;5.63;;;2.90;;
18574;SDS011;9417;16.484;102.872;2022-11-11T04:31:53;3.88;;;2.45;;
18574;SDS011;9417;16.484;102.872;2022-11-11T04:34:29;4.53;;;2.15;;
18574;SDS011;9417;16.484;102.872;2022-11-11T04:36:50;2.72;;;2.00;;
18574;SDS011;9417;16.484;102.872;2022-11-11T04:39:09;2.70;;;2.20;;
18574;SDS011;9417;16.484;102.872;2022-11-11T04:41:45;4.50;;;2.53;;
18574;SDS011;9417;16.484;102.872;2022-11-11T04:44:21;4.97;;;2.17;;
18574;SDS011;9417;16.484;102.872;2022-11-11T04:46:57;4.40;;;2.10;;
18574;SDS011;9417;16.484;102.872;2022-11-11T04:49:17;3.65;;;2.45;;
18574;SDS011;9417;16.484;102.872;2022-11-11T04:51:36;4.13;;;2.78;;
18574;SDS011;9417;16.484;102.872;2022-11-11T04:54:13;3.78;;;2.58;;
18574;SDS011;9417;16.484;102.872;2022-11-11T04:56:32;3.33;;;2.53;;
18574;SDS011;9417;16.484;102.872;2022-11-11T04:59:06;3.60;;;2.55;;
18574;SDS011;9417;16.484;102.872;2022-11-11T05:01:34;4.22;;;2.70;;
18574;SDS011;9417;16.484;102.872;2022-11-11T05:04:11;4.57;;;2.70;;
18574;SDS011;9417;16.484;102.872;2022-11-11T05:06:30;4.40;;;2.80;;
18574;SDS011;9417;16.484;102.872;2022-11-11T05:09:09;4.10;;;2.30;;
18574;SDS011;9417;16.484;102.872;2022-11-11T05:11:30;4.93;;;2.40;;
18574;SDS011;9417;16.484;102.872;2022-11-11T05:13:50;4.78;;;2.58;;
18574;SDS011;9417;16.484;102.872;2022-11-11T05:16:27;2.97;;;2.08;;
18574;SDS011;9417;16.484;102.872;2022-11-11T05:19:06;3.45;;;1.83;;
18574;SDS011;9417;16.484;102.872;2022-11-11T05:21:44;2.42;;;1.63;;
18574;SDS011;9417;16.484;102.872;2022-11-11T05:24:03;2.55;;;1.55;;
18574;SDS011;9417;16.484;102.872;2022-11-11T05:26:41;2.22;;;1.50;;
18574;SDS011;9417;16.484;102.872;2022-11-11T05:29:01;2.47;;;1.85;;
18574;SDS011;9417;16.484;102.872;2022-11-11T05:31:21;3.45;;;1.80;;
18574;SDS011;9417;16.484;102.872;2022-11-11T05:33:40;3.17;;;2.17;;
18574;SDS011;9417;16.484;102.872;2022-11-11T05:35:59;4.35;;;2.10;;
18574;SDS011;9417;16.484;102.872;2022-11-11T05:38:18;3.67;;;1.90;;
18574;SDS011;9417;16.484;102.872;2022-11-11T05:40:37;3.90;;;1.88;;
18574;SDS011;9417;16.484;102.872;2022-11-11T05:42:58;3.97;;;2.40;;
18574;SDS011;9417;16.484;102.872;2022-11-11T05:45:17;4.28;;;2.20;;
18574;SDS011;9417;16.484;102.872;2022-11-11T05:47:36;3.33;;;2.15;;
18574;SDS011;9417;16.484;102.872;2022-11-11T05:49:56;3.42;;;2.28;;
18574;SDS011;9417;16.484;102.872;2022-11-11T05:52:15;4.10;;;2.22;;
18574;SDS011;9417;16.484;102.872;2022-11-11T05:54:35;3.17;;;2.03;;
18574;SDS011;9417;16.484;102.872;2022-11-11T05:56:54;3.83;;;2.30;;
18574;SDS011;9417;16.484;102.872;2022-11-11T05:59:15;3.40;;;2.38;;
18574;SDS011;9417;16.484;102.872;2022-11-11T06:01:35;3.67;;;2.40;;
18574;SDS011;9417;16.484;102.872;2022-11-11T06:03:55;4.47;;;2.10;;
18574;SDS011;9417;16.484;102.872;2022-11-11T06:06:14;3.47;;;2.45;;
18574;SDS011;9417;16.484;102.872;2022-11-11T06:08:33;3.75;;;2.50;;
18574;SDS011;9417;16.484;102.872;2022-11-11T06:10:53;3.55;;;2.25;;
18574;SDS011;9417;16.484;102.872;2022-11-11T06:13:13;4.35;;;2.60;;
18574;SDS011;9417;16.484;102.872;2022-11-11T06:15:35;3.55;;;2.47;;
18574;SDS011;9417;16.484;102.872;2022-11-11T06:17:55;4.80;;;3.22;;
18574;SDS011;9417;16.484;102.872;2022-11-11T06:20:15;4.85;;;2.88;;
18574;SDS011;9417;16.484;102.872;2022-11-11T06:22:34;4.45;;;2.63;;
18574;SDS011;9417;16.484;102.872;2022-11-11T06:25:10;4.07;;;3.13;;
18574;SDS011;9417;16.484;102.872;2022-11-11T06:27:46;3.47;;;2.78;;
18574;SDS011;9417;16.484;102.872;2022-11-11T06:30:06;3.78;;;2.35;;
18574;SDS011;9417;16.484;102.872;2022-11-11T06:32:48;4.15;;;2.72;;
18574;SDS011;9417;16.484;102.872;2022-11-11T06:35:07;4.68;;;2.80;;
18574;SDS011;9417;16.484;102.872;2022-11-11T06:37:27;5.25;;;2.60;;
18574;SDS011;9417;16.484;102.872;2022-11-11T06:39:46;3.95;;;2.75;;
18574;SDS011;9417;16.484;102.872;2022-11-11T06:42:05;5.80;;;2.67;;
18574;SDS011;9417;16.484;102.872;2022-11-11T06:44:24;4.80;;;2.60;;
18574;SDS011;9417;16.484;102.872;2022-11-11T06:46:44;2.85;;;2.28;;
18574;SDS011;9417;16.484;102.872;2022-11-11T06:49:04;5.38;;;3.88;;
18574;SDS011;9417;16.484;102.872;2022-11-11T06:51:24;5.07;;;3.67;;
18574;SDS011;9417;16.484;102.872;2022-11-11T06:53:43;4.60;;;2.28;;
18574;SDS011;9417;16.484;102.872;2022-11-11T06:56:03;4.32;;;2.40;;
18574;SDS011;9417;16.484;102.872;2022-11-11T06:58:22;4.22;;;2.30;;
18574;SDS011;9417;16.484;102.872;2022-11-11T07:00:42;4.05;;;2.17;;
18574;SDS011;9417;16.484;102.872;2022-11-11T07:03:02;3.05;;;2.10;;
18574;SDS011;9417;16.484;102.872;2022-11-11T07:05:24;2.65;;;2.22;;
18574;SDS011;9417;16.484;102.872;2022-11-11T07:07:43;3.97;;;2.70;;
18574;SDS011;9417;16.484;102.872;2022-11-11T07:10:03;4.30;;;2.60;;
18574;SDS011;9417;16.484;102.872;2022-11-11T07:12:25;3.78;;;2.10;;
18574;SDS011;9417;16.484;102.872;2022-11-11T07:14:44;3.65;;;2.60;;
18574;SDS011;9417;16.484;102.872;2022-11-11T07:17:04;3.72;;;2.70;;
18574;SDS011;9417;16.484;102.872;2022-11-11T07:19:23;5.57;;;2.40;;
18574;SDS011;9417;16.484;102.872;2022-11-11T07:21:44;3.85;;;2.38;;
18574;SDS011;9417;16.484;102.872;2022-11-11T07:24:04;3.10;;;2.00;;
18574;SDS011;9417;16.484;102.872;2022-11-11T07:26:24;2.30;;;1.85;;
18574;SDS011;9417;16.484;102.872;2022-11-11T07:28:43;2.63;;;1.80;;
18574;SDS011;9417;16.484;102.872;2022-11-11T07:31:03;3.97;;;1.88;;
18574;SDS011;9417;16.484;102.872;2022-11-11T07:33:22;2.78;;;2.13;;
18574;SDS011;9417;16.484;102.872;2022-11-11T07:35:42;3.17;;;2.03;;
18574;SDS011;9417;16.484;102.872;2022-11-11T07:38:02;2.47;;;1.85;;
18574;SDS011;9417;16.484;102.872;2022-11-11T07:40:22;3.08;;;1.75;;
18574;SDS011;9417;16.484;102.872;2022-11-11T07:42:41;3.50;;;2.00;;
18574;SDS011;9417;16.484;102.872;2022-11-11T07:45:01;6.53;;;2.40;;
18574;SDS011;9417;16.484;102.872;2022-11-11T07:47:20;7.53;;;2.50;;
18574;SDS011;9417;16.484;102.872;2022-11-11T07:49:40;4.85;;;1.90;;
18574;SDS011;9417;16.484;102.872;2022-11-11T07:51:59;5.07;;;2.22;;
18574;SDS011;9417;16.484;102.872;2022-11-11T07:54:20;5.15;;;4.00;;
18574;SDS011;9417;16.484;102.872;2022-11-11T07:56:40;6.80;;;3.60;;
18574;SDS011;9417;16.484;102.872;2022-11-11T07:58:59;5.95;;;3.80;;
18574;SDS011;9417;16.484;102.872;2022-11-11T08:01:18;9.38;;;8.38;;
18574;SDS011;9417;16.484;102.872;2022-11-11T08:03:38;6.90;;;6.20;;
18574;SDS011;9417;16.484;102.872;2022-11-11T08:06:04;5.43;;;4.70;;
18574;SDS011;9417;16.484;102.872;2022-11-11T08:08:24;6.28;;;4.78;;
18574;SDS011;9417;16.484;102.872;2022-11-11T08:10:45;7.10;;;6.20;;
18574;SDS011;9417;16.484;102.872;2022-11-11T08:13:04;6.03;;;5.05;;
18574;SDS011;9417;16.484;102.872;2022-11-11T08:15:40;7.97;;;6.82;;
18574;SDS011;9417;16.484;102.872;2022-11-11T08:17:59;8.30;;;6.43;;
18574;SDS011;9417;16.484;102.872;2022-11-11T08:20:19;6.07;;;4.72;;
18574;SDS011;9417;16.484;102.872;2022-11-11T08:22:38;4.15;;;3.05;;
18574;SDS011;9417;16.484;102.872;2022-11-11T08:25:19;4.38;;;2.60;;
18574;SDS011;9417;16.484;102.872;2022-11-11T08:27:39;5.13;;;2.63;;
18574;SDS011;9417;16.484;102.872;2022-11-11T08:29:59;4.07;;;2.45;;
18574;SDS011;9417;16.484;102.872;2022-11-11T08:32:18;3.10;;;2.13;;
18574;SDS011;9417;16.484;102.872;2022-11-11T08:34:38;2.90;;;1.92;;
18574;SDS011;9417;16.484;102.872;2022-11-11T08:36:57;2.63;;;2.00;;
18574;SDS011;9417;16.484;102.872;2022-11-11T08:39:16;2.55;;;2.00;;
18574;SDS011;9417;16.484;102.872;2022-11-11T08:41:35;3.47;;;1.83;;
18574;SDS011;9417;16.484;102.872;2022-11-11T08:43:56;3.22;;;1.90;;
18574;SDS011;9417;16.484;102.872;2022-11-11T08:46:15;3.40;;;1.95;;
18574;SDS011;9417;16.484;102.872;2022-11-11T08:48:35;5.18;;;2.25;;
18574;SDS011;9417;16.484;102.872;2022-11-11T08:50:55;3.20;;;2.17;;
18574;SDS011;9417;16.484;102.872;2022-11-11T08:53:14;2.55;;;1.90;;
18574;SDS011;9417;16.484;102.872;2022-11-11T08:55:33;3.78;;;2.30;;
18574;SDS011;9417;16.484;102.872;2022-11-11T08:57:57;2.65;;;2.10;;
18574;SDS011;9417;16.484;102.872;2022-11-11T09:00:18;3.40;;;2.15;;
18574;SDS011;9417;16.484;102.872;2022-11-11T09:02:39;4.22;;;3.33;;
18574;SDS011;9417;16.484;102.872;2022-11-11T09:04:58;3.15;;;2.30;;
18574;SDS011;9417;16.484;102.872;2022-11-11T09:07:18;4.47;;;2.60;;
18574;SDS011;9417;16.484;102.872;2022-11-11T09:09:37;4.32;;;2.60;;
18574;SDS011;9417;16.484;102.872;2022-11-11T09:11:56;3.45;;;2.45;;
18574;SDS011;9417;16.484;102.872;2022-11-11T09:14:15;3.35;;;2.55;;
18574;SDS011;9417;16.484;102.872;2022-11-11T09:16:36;3.25;;;2.60;;
18574;SDS011;9417;16.484;102.872;2022-11-11T09:18:55;5.00;;;2.67;;
18574;SDS011;9417;16.484;102.872;2022-11-11T09:21:15;4.22;;;2.90;;
18574;SDS011;9417;16.484;102.872;2022-11-11T09:23:34;4.50;;;2.85;;
18574;SDS011;9417;16.484;102.872;2022-11-11T09:25:54;4.40;;;2.85;;
18574;SDS011;9417;16.484;102.872;2022-11-11T09:28:13;6.55;;;2.85;;
18574;SDS011;9417;16.484;102.872;2022-11-11T09:30:33;3.85;;;2.47;;
18574;SDS011;9417;16.484;102.872;2022-11-11T09:32:54;4.80;;;3.25;;
18574;SDS011;9417;16.484;102.872;2022-11-11T09:35:17;4.50;;;3.05;;
18574;SDS011;9417;16.484;102.872;2022-11-11T09:37:37;5.05;;;3.28;;
18574;SDS011;9417;16.484;102.872;2022-11-11T09:39:56;5.80;;;3.08;;
18574;SDS011;9417;16.484;102.872;2022-11-11T09:42:17;4.93;;;2.80;;
18574;SDS011;9417;16.484;102.872;2022-11-11T09:47:37;4.20;;;2.60;;
18574;SDS011;9417;16.484;102.872;2022-11-11T09:50:02;3.65;;;2.38;;
18574;SDS011;9417;16.484;102.872;2022-11-11T09:52:24;4.72;;;2.90;;
18574;SDS011;9417;16.484;102.872;2022-11-11T09:54:50;3.33;;;2.45;;
18574;SDS011;9417;16.484;102.872;2022-11-11T09:57:13;4.70;;;2.60;;
18574;SDS011;9417;16.484;102.872;2022-11-11T09:59:40;4.78;;;2.60;;
18574;SDS011;9417;16.484;102.872;2022-11-11T10:02:04;8.65;;;2.42;;
18574;SDS011;9417;16.484;102.872;2022-11-11T10:04:37;6.60;;;2.85;;
18574;SDS011;9417;16.484;102.872;2022-11-11T10:07:09;4.10;;;2.25;;
18574;SDS011;9417;16.484;102.872;2022-11-11T10:09:33;4.25;;;2.65;;
18574;SDS011;9417;16.484;102.872;2022-11-11T10:12:00;4.35;;;2.67;;
18574;SDS011;9417;16.484;102.872;2022-11-11T10:14:28;4.90;;;2.70;;
18574;SDS011;9417;16.484;102.872;2022-11-11T10:16:54;5.95;;;3.00;;
18574;SDS011;9417;16.484;102.872;2022-11-11T10:19:24;7.18;;;3.65;;
18574;SDS011;9417;16.484;102.872;2022-11-11T10:21:49;5.25;;;3.80;;
18574;SDS011;9417;16.484;102.872;2022-11-11T10:24:30;6.60;;;4.10;;
18574;SDS011;9417;16.484;102.872;2022-11-11T10:27:00;7.18;;;4.82;;
18574;SDS011;9417;16.484;102.872;2022-11-11T10:29:29;8.85;;;5.10;;
18574;SDS011;9417;16.484;102.872;2022-11-11T10:31:56;7.93;;;5.25;;
18574;SDS011;9417;16.484;102.872;2022-11-11T10:34:20;8.75;;;5.47;;
18574;SDS011;9417;16.484;102.872;2022-11-11T10:36:42;12.73;;;8.05;;
18574;SDS011;9417;16.484;102.872;2022-11-11T10:39:03;12.80;;;7.57;;
18574;SDS011;9417;16.484;102.872;2022-11-11T10:41:28;10.95;;;6.45;;
18574;SDS011;9417;16.484;102.872;2022-11-11T10:43:50;8.02;;;5.22;;
18574;SDS011;9417;16.484;102.872;2022-11-11T10:46:11;8.82;;;5.03;;
18574;SDS011;9417;16.484;102.872;2022-11-11T10:48:36;9.35;;;5.90;;
18574;SDS011;9417;16.484;102.872;2022-11-11T10:51:00;9.32;;;5.45;;
18574;SDS011;9417;16.484;102.872;2022-11-11T10:53:22;8.05;;;5.13;;
18574;SDS011;9417;16.484;102.872;2022-11-11T10:55:49;8.20;;;5.18;;
18574;SDS011;9417;16.484;102.872;2022-11-11T10:58:16;10.30;;;5.25;;
18574;SDS011;9417;16.484;102.872;2022-11-11T11:00:41;9.05;;;4.82;;
18574;SDS011;9417;16.484;102.872;2022-11-11T11:03:05;12.40;;;5.45;;
18574;SDS011;9417;16.484;102.872;2022-11-11T11:05:30;12.15;;;4.88;;
18574;SDS011;9417;16.484;102.872;2022-11-11T11:07:54;10.10;;;5.03;;
18574;SDS011;9417;16.484;102.872;2022-11-11T11:10:17;13.77;;;5.72;;
18574;SDS011;9417;16.484;102.872;2022-11-11T11:12:42;13.60;;;5.90;;
18574;SDS011;9417;16.484;102.872;2022-11-11T11:15:09;13.13;;;6.00;;
18574;SDS011;9417;16.484;102.872;2022-11-11T11:17:34;13.43;;;6.70;;
18574;SDS011;9417;16.484;102.872;2022-11-11T11:20:07;11.85;;;6.32;;
18574;SDS011;9417;16.484;102.872;2022-11-11T11:22:35;10.80;;;6.45;;
18574;SDS011;9417;16.484;102.872;2022-11-11T11:25:10;13.13;;;6.85;;
18574;SDS011;9417;16.484;102.872;2022-11-11T11:27:30;14.63;;;7.43;;
18574;SDS011;9417;16.484;102.872;2022-11-11T11:29:50;13.15;;;7.15;;
18574;SDS011;9417;16.484;102.872;2022-11-11T11:32:15;17.13;;;8.02;;
18574;SDS011;9417;16.484;102.872;2022-11-11T11:37:16;16.88;;;8.40;;
18574;SDS011;9417;16.484;102.872;2022-11-11T11:39:38;16.33;;;7.68;;
18574;SDS011;9417;16.484;102.872;2022-11-11T11:41:57;14.25;;;7.28;;
18574;SDS011;9417;16.484;102.872;2022-11-11T11:44:26;12.18;;;7.57;;
18574;SDS011;9417;16.484;102.872;2022-11-11T11:46:46;12.10;;;7.38;;
18574;SDS011;9417;16.484;102.872;2022-11-11T11:49:15;16.40;;;7.97;;
18574;SDS011;9417;16.484;102.872;2022-11-11T11:51:46;16.00;;;8.45;;
18574;SDS011;9417;16.484;102.872;2022-11-11T11:54:25;16.83;;;8.82;;
18574;SDS011;9417;16.484;102.872;2022-11-11T11:56:59;19.88;;;10.13;;
18574;SDS011;9417;16.484;102.872;2022-11-11T11:59:21;16.42;;;9.85;;
18574;SDS011;9417;16.484;102.872;2022-11-11T12:01:51;19.15;;;10.52;;
18574;SDS011;9417;16.484;102.872;2022-11-11T12:07:06;22.15;;;12.20;;
18574;SDS011;9417;16.484;102.872;2022-11-11T12:09:40;18.90;;;11.95;;
18574;SDS011;9417;16.484;102.872;2022-11-11T12:12:12;19.05;;;10.70;;
18574;SDS011;9417;16.484;102.872;2022-11-11T12:17:25;17.42;;;10.77;;
18574;SDS011;9417;16.484;102.872;2022-11-11T12:19:53;17.20;;;11.88;;
18574;SDS011;9417;16.484;102.872;2022-11-11T12:22:28;17.33;;;12.13;;
18574;SDS011;9417;16.484;102.872;2022-11-11T12:25:07;17.73;;;12.38;;
18574;SDS011;9417;16.484;102.872;2022-11-11T12:27:35;17.77;;;11.43;;
18574;SDS011;9417;16.484;102.872;2022-11-11T12:30:06;20.30;;;11.95;;
18574;SDS011;9417;16.484;102.872;2022-11-11T12:32:47;16.63;;;12.48;;
18574;SDS011;9417;16.484;102.872;2022-11-11T12:35:24;18.55;;;12.10;;
18574;SDS011;9417;16.484;102.872;2022-11-11T12:38:04;21.90;;;14.68;;
18574;SDS011;9417;16.484;102.872;2022-11-11T12:40:40;21.88;;;14.77;;
18574;SDS011;9417;16.484;102.872;2022-11-11T12:43:13;23.58;;;15.55;;
18574;SDS011;9417;16.484;102.872;2022-11-11T12:45:41;22.77;;;16.33;;
18574;SDS011;9417;16.484;102.872;2022-11-11T12:48:05;30.25;;;16.85;;
18574;SDS011;9417;16.484;102.872;2022-11-11T12:50:38;24.00;;;15.82;;
18574;SDS011;9417;16.484;102.872;2022-11-11T12:53:15;22.48;;;17.10;;
18574;SDS011;9417;16.484;102.872;2022-11-11T12:55:45;28.02;;;17.50;;
18574;SDS011;9417;16.484;102.872;2022-11-11T12:58:15;26.25;;;17.75;;
18574;SDS011;9417;16.484;102.872;2022-11-11T13:00:47;25.83;;;17.75;;
18574;SDS011;9417;16.484;102.872;2022-11-11T13:03:21;26.63;;;18.00;;
18574;SDS011;9417;16.484;102.872;2022-11-11T13:05:55;24.88;;;18.30;;
18574;SDS011;9417;16.484;102.872;2022-11-11T13:11:13;32.80;;;19.08;;
18574;SDS011;9417;16.484;102.872;2022-11-11T13:13:44;27.55;;;18.48;;
18574;SDS011;9417;16.484;102.872;2022-11-11T13:16:10;24.25;;;16.13;;
18574;SDS011;9417;16.484;102.872;2022-11-11T13:18:30;18.92;;;14.27;;
18574;SDS011;9417;16.484;102.872;2022-11-11T13:21:08;19.45;;;13.45;;
18574;SDS011;9417;16.484;102.872;2022-11-11T13:23:29;26.98;;;14.90;;
18574;SDS011;9417;16.484;102.872;2022-11-11T13:25:50;28.73;;;15.23;;
18574;SDS011;9417;16.484;102.872;2022-11-11T13:28:16;26.75;;;14.68;;
18574;SDS011;9417;16.484;102.872;2022-11-11T13:30:44;28.52;;;15.52;;
18574;SDS011;9417;16.484;102.872;2022-11-11T13:33:10;26.15;;;14.65;;
18574;SDS011;9417;16.484;102.872;2022-11-11T13:35:38;27.23;;;15.07;;
18574;SDS011;9417;16.484;102.872;2022-11-11T13:38:03;28.02;;;15.52;;
18574;SDS011;9417;16.484;102.872;2022-11-11T13:43:03;27.98;;;15.18;;
18574;SDS011;9417;16.484;102.872;2022-11-11T13:45:36;26.33;;;14.65;;
18574;SDS011;9417;16.484;102.872;2022-11-11T13:47:58;23.65;;;14.57;;
18574;SDS011;9417;16.484;102.872;2022-11-11T13:50:21;29.27;;;14.65;;
18574;SDS011;9417;16.484;102.872;2022-11-11T13:52:51;27.10;;;15.40;;
18574;SDS011;9417;16.484;102.872;2022-11-11T13:55:22;23.80;;;14.43;;
18574;SDS011;9417;16.484;102.872;2022-11-11T13:57:47;23.25;;;14.13;;
18574;SDS011;9417;16.484;102.872;2022-11-11T14:00:23;21.48;;;13.43;;
18574;SDS011;9417;16.484;102.872;2022-11-11T14:02:45;26.00;;;13.98;;
18574;SDS011;9417;16.484;102.872;2022-11-11T14:05:15;25.25;;;14.30;;
18574;SDS011;9417;16.484;102.872;2022-11-11T14:10:33;23.77;;;13.98;;
18574;SDS011;9417;16.484;102.872;2022-11-11T14:15:55;24.83;;;14.18;;
18574;SDS011;9417;16.484;102.872;2022-11-11T14:18:30;23.85;;;14.73;;
18574;SDS011;9417;16.484;102.872;2022-11-11T14:20:55;29.47;;;14.17;;
18574;SDS011;9417;16.484;102.872;2022-11-11T14:23:28;23.25;;;13.48;;
18574;SDS011;9417;16.484;102.872;2022-11-11T14:28:49;21.45;;;13.70;;
18574;SDS011;9417;16.484;102.872;2022-11-11T14:31:32;22.65;;;13.45;;
18574;SDS011;9417;16.484;102.872;2022-11-11T14:34:16;27.70;;;15.02;;
18574;SDS011;9417;16.484;102.872;2022-11-11T14:36:47;24.83;;;14.73;;
18574;SDS011;9417;16.484;102.872;2022-11-11T14:39:13;24.10;;;14.27;;